createdAt,value
2023-01-07T00:02:22.362Z,67.61
2023-01-07T00:04:48.840Z,67.21
2023-01-07T00:07:15.338Z,67.25
2023-01-07T00:09:41.814Z,67.19
2023-01-07T00:12:08.277Z,67.88
2023-01-07T00:14:34.824Z,67.22
2023-01-07T00:17:01.273Z,67.50
2023-01-07T00:19:27.727Z,66.73
2023-01-07T00:21:55.026Z,66.67
2023-01-07T00:24:21.533Z,67.09
2023-01-07T00:26:47.973Z,66.75
2023-01-07T00:29:16.092Z,66.71
2023-01-07T00:31:42.617Z,66.59
2023-01-07T00:34:09.549Z,66.99
2023-01-07T00:36:37.744Z,67.29
2023-01-07T00:39:05.757Z,67.31
2023-01-07T00:41:32.295Z,67.24
2023-01-07T00:43:58.850Z,66.91
2023-01-07T00:46:27.762Z,67.07
2023-01-07T00:48:54.290Z,67.67
2023-01-07T00:51:21.589Z,67.24
2023-01-07T00:53:48.072Z,67.34
2023-01-07T00:56:14.991Z,67.37
2023-01-07T00:58:42.077Z,66.99
2023-01-07T01:01:09.895Z,67.20
2023-01-07T01:03:36.508Z,67.45
2023-01-07T01:06:05.171Z,66.85
2023-01-07T01:08:31.720Z,67.10
2023-01-07T01:11:03.084Z,66.75
2023-01-07T01:13:29.633Z,66.95
2023-01-07T01:15:56.188Z,66.74
2023-01-07T01:18:22.642Z,67.93
2023-01-07T01:20:49.141Z,67.42
2023-01-07T01:23:15.617Z,67.88
2023-01-07T01:25:42.101Z,67.75
2023-01-07T01:28:08.592Z,67.74
2023-01-07T01:30:35.064Z,67.71
2023-01-07T01:33:01.532Z,67.24
2023-01-07T01:35:28.032Z,68.57
2023-01-07T01:37:54.519Z,68.33
2023-01-07T01:40:21.016Z,68.32
2023-01-07T01:42:47.515Z,68.45
2023-01-07T01:45:15.769Z,68.33
2023-01-07T01:47:42.223Z,67.60
2023-01-07T01:50:17.643Z,67.76
2023-01-07T01:52:51.405Z,68.62
2023-01-07T01:55:21.271Z,68.26
2023-01-07T01:57:48.968Z,67.79
2023-01-07T02:00:16.719Z,68.20
2023-01-07T02:02:52.390Z,67.42
2023-01-07T02:05:19.018Z,68.04
2023-01-07T02:07:45.447Z,68.35
2023-01-07T02:10:14.663Z,67.44
2023-01-07T02:12:44.242Z,68.44
2023-01-07T02:15:10.757Z,68.48
2023-01-07T02:18:05.040Z,68.30
2023-01-07T02:20:47.033Z,68.10
2023-01-07T02:23:13.533Z,67.75
2023-01-07T02:26:01.375Z,67.38
2023-01-07T02:28:48.680Z,67.82
2023-01-07T02:31:18.191Z,67.68
2023-01-07T02:33:47.745Z,68.18
2023-01-07T02:36:23.333Z,68.27
2023-01-07T02:39:05.747Z,67.87
2023-01-07T02:41:44.308Z,67.29
2023-01-07T02:44:33.692Z,67.65
2023-01-07T02:47:10.111Z,67.71
2023-01-07T02:49:36.597Z,67.15
2023-01-07T02:52:21.003Z,66.98
2023-01-07T02:55:10.338Z,67.51
2023-01-07T02:57:36.839Z,66.77
2023-01-07T03:00:19.236Z,66.76
2023-01-07T03:03:10.398Z,67.12
2023-01-07T03:05:42.753Z,66.05
2023-01-07T03:08:16.640Z,66.60
2023-01-07T03:10:51.958Z,66.54
2023-01-07T03:13:23.391Z,67.03
2023-01-07T03:16:08.667Z,66.57
2023-01-07T03:18:43.661Z,66.28
2023-01-07T03:21:11.732Z,65.69
2023-01-07T03:23:41.768Z,66.11
2023-01-07T03:26:11.455Z,65.86
2023-01-07T03:28:41.536Z,66.35
2023-01-07T03:31:10.109Z,65.73
2023-01-07T03:33:36.687Z,65.95
2023-01-07T03:36:05.010Z,66.36
2023-01-07T03:38:32.451Z,65.83
2023-01-07T03:40:59.727Z,65.27
2023-01-07T03:43:26.206Z,65.21
2023-01-07T03:45:54.130Z,65.68
2023-01-07T03:48:21.444Z,65.31
2023-01-07T03:50:47.880Z,66.49
2023-01-07T03:53:14.362Z,65.65
2023-01-07T03:55:40.999Z,66.35
2023-01-07T03:58:07.469Z,66.04
2023-01-07T04:00:33.968Z,65.38
2023-01-07T04:03:01.992Z,65.63
2023-01-07T04:05:28.524Z,64.93
2023-01-07T04:07:54.990Z,66.35
2023-01-07T04:10:21.524Z,66.43
2023-01-07T04:12:48.025Z,65.69
2023-01-07T04:15:14.511Z,65.36
2023-01-07T04:17:41.745Z,66.34
2023-01-07T04:20:08.523Z,65.61
2023-01-07T04:22:35.084Z,66.75
2023-01-07T04:25:01.608Z,66.99
2023-01-07T04:27:29.791Z,65.59
2023-01-07T04:29:56.256Z,66.34
2023-01-07T04:32:23.525Z,66.21
2023-01-07T04:34:49.964Z,66.60
2023-01-07T04:37:16.455Z,66.55
2023-01-07T04:39:43.017Z,66.01
2023-01-07T04:42:09.523Z,66.18
2023-01-07T04:44:37.681Z,66.12
2023-01-07T04:47:05.257Z,64.61
2023-01-07T04:49:31.758Z,64.40
2023-01-07T04:51:58.220Z,65.35
2023-01-07T04:54:24.709Z,65.43
2023-01-07T04:56:51.225Z,65.47
2023-01-07T04:59:17.688Z,64.61
2023-01-07T05:01:44.420Z,64.33
2023-01-07T05:04:11.071Z,65.36
2023-01-07T05:06:37.648Z,65.78
2023-01-07T05:09:04.246Z,66.43
2023-01-07T05:11:30.699Z,65.17
2023-01-07T05:13:59.387Z,65.30
2023-01-07T05:16:26.719Z,66.00
2023-01-07T05:18:53.337Z,65.50
2023-01-07T05:21:19.792Z,65.29
2023-01-07T05:23:46.291Z,65.54
2023-01-07T05:26:12.809Z,64.78
2023-01-07T05:28:39.260Z,64.65
2023-01-07T05:31:07.280Z,65.13
2023-01-07T05:33:33.768Z,64.58
2023-01-07T05:36:00.281Z,65.04
2023-01-07T05:38:26.836Z,64.80
2023-01-07T05:40:53.401Z,65.42
2023-01-07T05:43:21.544Z,64.79
2023-01-07T05:45:48.128Z,65.97
2023-01-07T05:48:15.234Z,64.47
2023-01-07T05:50:41.943Z,65.88
2023-01-07T05:53:09.255Z,64.63
2023-01-07T05:55:36.981Z,66.04
2023-01-07T05:58:03.527Z,66.06
2023-01-07T06:00:30.863Z,66.27
2023-01-07T06:02:57.349Z,65.98
2023-01-07T06:05:23.832Z,66.53
2023-01-07T06:07:52.023Z,65.97
2023-01-07T06:10:18.528Z,65.54
2023-01-07T06:12:44.986Z,65.91
2023-01-07T06:15:12.737Z,66.08
2023-01-07T06:17:39.252Z,64.66
2023-01-07T06:20:06.278Z,64.46
2023-01-07T06:22:32.808Z,63.93
2023-01-07T06:24:59.292Z,63.79
2023-01-07T06:27:25.784Z,63.61
2023-01-07T06:29:52.301Z,63.42
2023-01-07T06:32:18.770Z,63.33
2023-01-07T06:34:45.226Z,63.13
2023-01-07T06:37:12.723Z,63.72
2023-01-07T06:39:39.166Z,63.07
2023-01-07T06:42:05.701Z,64.11
2023-01-07T06:44:34.070Z,63.33
2023-01-07T06:47:00.600Z,62.98
2023-01-07T06:49:27.087Z,63.52
2023-01-07T06:51:55.085Z,63.56
2023-01-07T06:54:21.591Z,63.85
2023-01-07T06:56:48.074Z,64.02
2023-01-07T06:59:14.654Z,63.97
2023-01-07T07:01:41.207Z,63.11
2023-01-07T07:04:07.730Z,63.61
2023-01-07T07:06:34.967Z,64.48
2023-01-07T07:09:05.618Z,63.87
2023-01-07T07:11:32.093Z,64.27
2023-01-07T07:14:00.698Z,64.50
2023-01-07T07:16:31.833Z,63.59
2023-01-07T07:18:59.073Z,63.53
2023-01-07T07:21:25.579Z,64.59
2023-01-07T07:23:52.077Z,63.74
2023-01-07T07:26:21.609Z,64.75
2023-01-07T07:28:49.052Z,65.13
2023-01-07T07:31:15.594Z,64.29
2023-01-07T07:33:42.139Z,64.17
2023-01-07T07:36:08.842Z,64.20
2023-01-07T07:38:35.320Z,65.05
2023-01-07T07:41:01.809Z,65.09
2023-01-07T07:43:29.162Z,65.37
2023-01-07T07:45:57.385Z,65.28
2023-01-07T07:48:23.901Z,65.58
2023-01-07T07:50:51.299Z,65.76
2023-01-07T07:53:18.709Z,65.97
2023-01-07T07:55:48.221Z,66.28
2023-01-07T07:58:15.597Z,65.87
2023-01-07T08:00:43.159Z,66.49
2023-01-07T08:03:10.366Z,66.20
2023-01-07T08:05:39.828Z,66.00
2023-01-07T08:08:06.413Z,66.03
2023-01-07T08:10:40.393Z,65.83
2023-01-07T08:13:07.062Z,65.46
2023-01-07T08:15:33.594Z,65.22
2023-01-07T08:18:02.682Z,65.00
2023-01-07T08:20:29.542Z,64.37
2023-01-07T08:22:58.231Z,64.37
2023-01-07T08:25:25.607Z,64.39
2023-01-07T08:27:52.267Z,64.12
2023-01-07T08:30:18.918Z,64.24
2023-01-07T08:32:45.715Z,64.25
2023-01-07T08:35:12.356Z,64.13
2023-01-07T08:37:38.895Z,64.38
2023-01-07T08:40:07.222Z,64.36
2023-01-07T08:42:33.779Z,64.58
2023-01-07T08:45:01.397Z,64.50
2023-01-07T08:47:28.170Z,64.52
2023-01-07T08:50:05.382Z,64.59
2023-01-07T08:52:32.738Z,64.75
2023-01-07T08:54:59.278Z,64.62
2023-01-07T08:57:25.893Z,64.73
2023-01-07T08:59:53.269Z,64.44
2023-01-07T09:02:20.143Z,64.72
2023-01-07T09:04:46.776Z,64.12
2023-01-07T09:07:13.334Z,63.87
2023-01-07T09:09:39.979Z,63.53
2023-01-07T09:12:07.511Z,62.94
2023-01-07T09:14:57.039Z,63.11
2023-01-07T09:17:28.768Z,63.31
2023-01-07T09:19:59.026Z,64.21
2023-01-07T09:22:25.626Z,64.45
2023-01-07T09:24:52.271Z,62.66
2023-01-07T09:27:39.282Z,62.09
2023-01-07T09:30:08.257Z,60.03
2023-01-07T09:32:34.886Z,59.90
2023-01-07T09:35:01.773Z,59.67
2023-01-07T09:37:28.307Z,59.17
2023-01-07T09:39:54.900Z,58.93
2023-01-07T09:42:25.185Z,58.13
2023-01-07T09:44:57.570Z,59.31
2023-01-07T09:47:27.379Z,59.29
2023-01-07T09:49:56.658Z,57.72
2023-01-07T09:52:26.956Z,58.86
2023-01-07T09:54:59.313Z,58.84
2023-01-07T09:57:28.785Z,59.64
2023-01-07T09:59:55.588Z,59.34
2023-01-07T10:02:49.129Z,58.87
2023-01-07T10:05:34.500Z,57.14
2023-01-07T10:08:30.475Z,57.08
2023-01-07T10:10:58.719Z,55.54
2023-01-07T10:13:44.373Z,53.91
2023-01-07T10:16:11.186Z,54.30
2023-01-07T10:18:47.021Z,54.99
2023-01-07T10:21:16.925Z,54.05
2023-01-07T10:23:51.406Z,51.68
2023-01-07T10:26:37.703Z,49.64
2023-01-07T10:29:11.545Z,47.90
2023-01-07T10:31:38.326Z,46.52
2023-01-07T10:34:13.332Z,45.54
2023-01-07T10:37:01.852Z,44.16
2023-01-07T10:39:47.363Z,43.61
2023-01-07T10:42:14.114Z,43.00
2023-01-07T10:44:53.531Z,43.76
2023-01-07T10:47:25.770Z,42.84
2023-01-07T10:49:58.383Z,43.41
2023-01-07T10:52:26.865Z,41.24
2023-01-07T10:55:12.411Z,42.51
2023-01-07T10:57:39.236Z,41.26
2023-01-07T11:00:07.846Z,40.58
2023-01-07T11:02:34.683Z,40.17
2023-01-07T11:05:02.611Z,39.67
2023-01-07T11:07:55.124Z,40.92
2023-01-07T11:10:24.082Z,41.53
2023-01-07T11:12:55.130Z,42.31
2023-01-07T11:15:33.729Z,43.80
2023-01-07T11:18:07.268Z,43.47
2023-01-07T11:20:50.130Z,43.53
2023-01-07T11:23:25.807Z,44.51
2023-01-07T11:25:52.471Z,45.37
2023-01-07T11:28:20.560Z,44.75
2023-01-07T11:30:56.560Z,45.56
2023-01-07T11:34:04.139Z,47.26
2023-01-07T11:36:12.425Z,46.07
2023-01-07T11:38:39.479Z,47.90
2023-01-07T11:41:07.638Z,48.04
2023-01-07T11:43:36.230Z,46.46
2023-01-07T11:46:20.807Z,48.91
2023-01-07T11:48:57.853Z,49.18
2023-01-07T11:51:24.944Z,49.76
2023-01-07T11:53:51.429Z,49.78
2023-01-07T11:56:20.938Z,50.57
2023-01-07T11:59:06.404Z,51.68
2023-01-07T12:01:41.040Z,51.20
2023-01-07T12:04:19.779Z,51.38
2023-01-07T12:06:47.664Z,52.30
2023-01-07T12:09:18.552Z,50.90
2023-01-07T12:12:38.158Z,49.37
2023-01-07T12:15:21.820Z,48.97
2023-01-07T12:17:56.037Z,48.39
2023-01-07T12:20:52.540Z,48.58
2023-01-07T12:23:41.391Z,48.89
2023-01-07T12:26:25.998Z,51.10
2023-01-07T12:29:36.462Z,51.05
2023-01-07T12:32:18.208Z,54.38
2023-01-07T12:34:50.738Z,55.64
2023-01-07T12:37:26.232Z,56.52
2023-01-07T12:39:57.998Z,57.57
2023-01-07T12:42:29.176Z,58.04
2023-01-07T12:45:04.202Z,59.15
2023-01-07T12:47:39.380Z,59.78
2023-01-07T12:50:22.087Z,60.63
2023-01-07T12:53:17.892Z,60.76
2023-01-07T12:55:50.943Z,61.32
2023-01-07T12:58:50.420Z,61.96
2023-01-07T13:01:20.468Z,62.46
2023-01-07T13:04:01.413Z,62.36
2023-01-07T13:06:34.384Z,62.93
2023-01-07T13:09:14.919Z,63.67
2023-01-07T13:12:42.204Z,64.13
2023-01-07T13:15:09.555Z,64.26
2023-01-07T13:17:36.410Z,64.96
2023-01-07T13:20:04.862Z,64.69
2023-01-07T13:22:46.421Z,65.09
2023-01-07T13:25:33.057Z,65.09
2023-01-07T13:28:06.328Z,65.21
2023-01-07T13:31:00.746Z,65.36
2023-01-07T13:33:48.389Z,65.84
2023-01-07T13:36:32.243Z,65.61
2023-01-07T13:39:40.895Z,65.81
2023-01-07T13:42:45.253Z,66.01
2023-01-07T13:45:17.254Z,65.64
2023-01-07T13:47:57.440Z,66.79
2023-01-07T13:50:38.438Z,66.56
2023-01-07T13:53:27.018Z,66.60
2023-01-07T13:56:14.714Z,66.37
2023-01-07T13:58:46.309Z,66.54
2023-01-07T14:01:18.596Z,67.09
2023-01-07T14:03:49.833Z,66.94
2023-01-07T14:06:25.282Z,67.24
2023-01-07T14:08:56.621Z,67.22
2023-01-07T14:11:29.516Z,66.77
2023-01-07T14:14:14.996Z,67.38
2023-01-07T14:16:50.453Z,67.13
2023-01-07T14:19:39.198Z,67.06
2023-01-07T14:22:23.950Z,67.72
2023-01-07T14:25:35.335Z,67.10
2023-01-07T14:28:25.515Z,67.41
2023-01-07T14:30:53.514Z,66.92
2023-01-07T14:33:26.930Z,66.98
2023-01-07T14:36:00.654Z,67.74
2023-01-07T14:38:30.063Z,67.16
2023-01-07T14:41:17.121Z,67.00
2023-01-07T14:43:43.898Z,67.13
2023-01-07T14:46:36.752Z,67.04
2023-01-07T14:49:03.638Z,67.65
2023-01-07T14:51:57.518Z,67.35
2023-01-07T14:54:33.097Z,67.13
2023-01-07T14:57:11.949Z,67.87
2023-01-07T14:59:58.913Z,67.49
2023-01-07T15:02:37.522Z,67.79
2023-01-07T15:05:09.964Z,67.96
2023-01-07T15:07:40.101Z,67.58
2023-01-07T15:10:49.915Z,67.54
2023-01-07T15:13:37.897Z,67.47
2023-01-07T15:16:12.257Z,67.61
2023-01-07T15:18:49.674Z,67.77
2023-01-07T15:21:37.589Z,67.62
2023-01-07T15:24:28.279Z,67.97
2023-01-07T15:27:19.138Z,67.65
2023-01-07T15:30:00.792Z,67.65
2023-01-07T15:32:50.241Z,67.41
2023-01-07T15:35:22.066Z,68.15
2023-01-07T15:38:37.757Z,67.21
2023-01-07T15:41:06.996Z,67.62
2023-01-07T15:43:34.373Z,68.06
2023-01-07T15:46:03.486Z,67.88
2023-01-07T15:48:30.440Z,68.31
2023-01-07T15:51:01.472Z,67.39
2023-01-07T15:53:30.715Z,67.85
2023-01-07T15:56:08.573Z,67.14
2023-01-07T15:58:48.801Z,66.02
2023-01-07T16:01:23.022Z,66.51
2023-01-07T16:03:56.658Z,66.86
2023-01-07T16:06:31.447Z,66.65
2023-01-07T16:08:59.605Z,66.42
2023-01-07T16:11:31.451Z,66.70
2023-01-07T16:14:13.398Z,67.19
2023-01-07T16:16:39.968Z,67.35
2023-01-07T16:19:21.617Z,68.19
2023-01-07T16:21:57.281Z,67.78
2023-01-07T16:24:24.225Z,67.44
2023-01-07T16:26:59.277Z,67.86
2023-01-07T16:29:29.152Z,67.57
2023-01-07T16:31:56.925Z,67.38
2023-01-07T16:34:23.477Z,66.88
2023-01-07T16:36:54.483Z,66.38
2023-01-07T16:39:25.475Z,66.42
2023-01-07T16:42:13.731Z,66.47
2023-01-07T16:44:40.262Z,65.36
2023-01-07T16:47:24.371Z,66.19
2023-01-07T16:49:54.432Z,65.72
2023-01-07T16:52:23.307Z,65.58
2023-01-07T16:54:50.462Z,65.49
2023-01-07T16:57:33.797Z,65.14
2023-01-07T17:00:03.856Z,66.02
2023-01-07T17:02:40.332Z,65.42
2023-01-07T17:05:37.759Z,65.25
2023-01-07T17:08:16.478Z,65.42
2023-01-07T17:10:56.298Z,65.26
2023-01-07T17:13:23.658Z,64.73
2023-01-07T17:15:50.792Z,64.60
2023-01-07T17:18:18.754Z,64.84
2023-01-07T17:20:48.083Z,65.36
2023-01-07T17:23:26.940Z,65.19
2023-01-07T17:26:12.794Z,65.27
2023-01-07T17:28:49.303Z,65.25
2023-01-07T17:31:16.273Z,65.36
2023-01-07T17:33:43.921Z,65.37
2023-01-07T17:36:23.786Z,65.43
2023-01-07T17:38:50.573Z,65.47
2023-01-07T17:41:38.625Z,66.18
2023-01-07T17:44:07.631Z,66.31
2023-01-07T17:46:34.324Z,65.64
2023-01-07T17:49:09.517Z,65.84
2023-01-07T17:51:39.112Z,66.84
2023-01-07T17:54:06.891Z,66.21
2023-01-07T17:56:34.869Z,65.75
2023-01-07T17:59:01.526Z,65.87
2023-01-07T18:01:28.499Z,66.57
2023-01-07T18:03:55.847Z,66.25
2023-01-07T18:06:24.783Z,66.36
2023-01-07T18:08:52.581Z,66.35
2023-01-07T18:11:44.144Z,66.63
2023-01-07T18:14:15.297Z,66.83
2023-01-07T18:16:42.701Z,66.19
2023-01-07T18:19:13.863Z,67.00
2023-01-07T18:21:40.681Z,66.84
2023-01-07T18:24:07.872Z,66.25
2023-01-07T18:26:34.461Z,67.06
2023-01-07T18:29:01.029Z,66.81
2023-01-07T18:31:27.752Z,66.69
2023-01-07T18:33:54.393Z,66.63
2023-01-07T18:36:21.646Z,66.11
2023-01-07T18:38:48.230Z,66.19
2023-01-07T18:41:14.919Z,66.39
2023-01-07T18:43:41.547Z,66.10
2023-01-07T18:46:09.951Z,66.01
2023-01-07T18:48:37.331Z,65.88
2023-01-07T18:51:09.817Z,66.19
2023-01-07T18:53:36.521Z,65.97
2023-01-07T18:56:06.180Z,65.84
2023-01-07T18:58:32.736Z,65.98
2023-01-07T19:01:03.760Z,65.58
2023-01-07T19:03:31.551Z,65.46
2023-01-07T19:06:00.031Z,65.78
2023-01-07T19:08:27.535Z,64.76
2023-01-07T19:10:54.176Z,65.94
2023-01-07T19:13:21.309Z,66.14
2023-01-07T19:15:47.900Z,66.10
2023-01-07T19:18:14.593Z,66.43
2023-01-07T19:20:41.165Z,66.80
2023-01-07T19:23:07.855Z,66.42
2023-01-07T19:25:35.260Z,66.83
2023-01-07T19:28:01.837Z,66.73
2023-01-07T19:30:28.456Z,66.11
2023-01-07T19:32:56.239Z,66.76
2023-01-07T19:35:22.842Z,66.27
2023-01-07T19:37:50.281Z,66.79
2023-01-07T19:40:17.912Z,66.80
2023-01-07T19:42:44.547Z,67.22
2023-01-07T19:45:11.367Z,67.80
2023-01-07T19:47:40.007Z,66.59
2023-01-07T19:50:07.236Z,67.24
2023-01-07T19:52:33.826Z,67.22
2023-01-07T19:55:00.482Z,66.55
2023-01-07T19:57:27.094Z,67.60
2023-01-07T19:59:53.666Z,66.91
2023-01-07T20:02:20.427Z,67.04
2023-01-07T20:04:47.101Z,67.29
2023-01-07T20:07:13.673Z,66.98
2023-01-07T20:09:41.360Z,67.37
2023-01-07T20:12:08.211Z,67.26
2023-01-07T20:14:34.876Z,67.20
2023-01-07T20:17:01.574Z,68.06
2023-01-07T20:19:29.876Z,68.25
2023-01-07T20:21:56.457Z,67.47
2023-01-07T20:24:23.026Z,67.43
2023-01-07T20:26:49.647Z,66.67
2023-01-07T20:29:16.357Z,66.76
2023-01-07T20:31:45.908Z,67.47
2023-01-07T20:34:12.733Z,66.40
2023-01-07T20:36:39.329Z,66.85
2023-01-07T20:39:06.230Z,67.39
2023-01-07T20:41:34.344Z,68.54
2023-01-07T20:44:02.624Z,68.38
2023-01-07T20:46:31.894Z,67.80
2023-01-07T20:48:59.154Z,69.01
2023-01-07T20:51:25.961Z,68.71
2023-01-07T20:53:53.096Z,68.52
2023-01-07T20:56:22.735Z,69.27
2023-01-07T20:58:50.111Z,68.69
2023-01-07T21:01:20.144Z,68.89
2023-01-07T21:03:46.854Z,69.13
2023-01-07T21:06:17.565Z,68.85
2023-01-07T21:08:46.694Z,68.45
2023-01-07T21:11:17.067Z,69.28
2023-01-07T21:13:43.808Z,69.77
2023-01-07T21:16:11.433Z,69.19
2023-01-07T21:18:38.363Z,68.67
2023-01-07T21:21:25.958Z,69.27
2023-01-07T21:23:54.243Z,68.81
2023-01-07T21:26:21.509Z,68.80
2023-01-07T21:28:48.188Z,69.70
2023-01-07T21:31:16.183Z,69.61
2023-01-07T21:33:43.761Z,69.25
2023-01-07T21:36:13.260Z,69.99
2023-01-07T21:38:40.090Z,70.08
2023-01-07T21:41:11.792Z,70.16
2023-01-07T21:43:38.960Z,69.29
2023-01-07T21:46:07.024Z,69.16
2023-01-07T21:48:41.000Z,69.34
2023-01-07T21:51:11.449Z,69.64
2023-01-07T21:53:38.356Z,69.00
2023-01-07T21:56:25.280Z,69.03
2023-01-07T21:58:52.333Z,69.54
2023-01-07T22:01:19.828Z,69.52
2023-01-07T22:03:48.819Z,70.40
2023-01-07T22:06:22.678Z,68.75
2023-01-07T22:08:54.189Z,69.95
2023-01-07T22:11:22.123Z,69.91
2023-01-07T22:13:56.404Z,69.76
2023-01-07T22:16:25.406Z,70.36
2023-01-07T22:18:52.218Z,69.35
2023-01-07T22:21:20.342Z,69.45
2023-01-07T22:23:48.064Z,69.60
2023-01-07T22:26:16.232Z,69.76
2023-01-07T22:28:44.888Z,70.65
2023-01-07T22:31:22.501Z,69.19
2023-01-07T22:33:50.185Z,69.71
2023-01-07T22:36:32.710Z,69.70
2023-01-07T22:39:04.022Z,69.89
2023-01-07T22:41:33.142Z,69.35
2023-01-07T22:44:03.842Z,70.11
2023-01-07T22:46:33.496Z,70.11
2023-01-07T22:49:00.159Z,69.75
2023-01-07T22:51:38.831Z,69.94
2023-01-07T22:54:06.305Z,70.93
2023-01-07T22:56:34.668Z,69.92
2023-01-07T22:59:01.313Z,69.99
2023-01-07T23:01:27.938Z,70.68
2023-01-07T23:03:54.633Z,70.47
2023-01-07T23:06:21.462Z,69.57
2023-01-07T23:08:48.084Z,70.07
2023-01-07T23:11:36.707Z,70.67
2023-01-07T23:14:03.661Z,70.63
2023-01-07T23:16:30.319Z,70.15
2023-01-07T23:18:57.727Z,70.87
2023-01-07T23:21:24.316Z,71.13
2023-01-07T23:23:50.880Z,71.28
2023-01-07T23:26:18.257Z,71.68
2023-01-07T23:28:44.850Z,71.23
2023-01-07T23:31:11.462Z,71.66
2023-01-07T23:33:38.133Z,71.39
2023-01-07T23:36:09.695Z,71.92
2023-01-07T23:38:36.581Z,71.77
2023-01-07T23:41:08.765Z,70.67
2023-01-07T23:43:35.842Z,70.66
2023-01-07T23:46:04.800Z,72.18
2023-01-07T23:48:33.528Z,71.68
2023-01-07T23:51:09.522Z,70.95
2023-01-07T23:53:37.373Z,70.89
2023-01-07T23:56:05.084Z,71.13
2023-01-07T23:58:32.153Z,71.17
